Time;durP1;ratioP1;P1;durP2;ratioP2;P2;SDS_P1;SDS_P2;PMS_P1;PMS_P2;Temp;Humidity;BMP_temperature;BMP_pressure;BME280_temperature;BME280_humidity;BME280_pressure;Samples;Min_cycle;Max_cycle;Signal;HPM_P1;HPM_P2
2022/11/13 00:00:50;;;;;;;17.13;9.50;;;7.40;99.90;;;;;;4989768;28;20457;-51
2022/11/13 00:03:16;;;;;;;10.30;9.30;;;7.40;99.90;;;;;;4988671;28;21197;-51
2022/11/13 00:05:43;;;;;;;17.97;11.30;;;7.50;99.60;;;;;;4991183;28;20480;-50
2022/11/13 00:08:10;;;;;;;14.77;10.83;;;7.50;98.90;;;;;;4988405;28;20496;-51
2022/11/13 00:10:38;;;;;;;27.73;12.27;;;7.50;98.40;;;;;;4989344;28;20499;-51
2022/11/13 00:13:05;;;;;;;16.80;11.13;;;7.60;98.10;;;;;;4989432;28;20501;-51
2022/11/13 00:15:31;;;;;;;17.40;10.80;;;7.60;97.90;;;;;;4988978;28;20556;-51
2022/11/13 00:18:00;;;;;;;15.50;11.63;;;7.60;97.30;;;;;;4989136;28;20468;-51
2022/11/13 00:20:27;;;;;;;13.90;10.50;;;7.60;96.90;;;;;;4984573;28;20464;-51
2022/11/13 00:22:54;;;;;;;19.53;11.63;;;7.70;96.50;;;;;;4989156;28;20456;-51
2022/11/13 00:25:21;;;;;;;14.57;11.80;;;7.70;96.40;;;;;;4987936;28;20489;-52
2022/11/13 00:27:48;;;;;;;17.33;12.23;;;7.70;95.90;;;;;;4989987;28;20460;-53
2022/11/13 00:30:16;;;;;;;17.20;12.20;;;7.70;95.40;;;;;;4987565;28;20993;-52
2022/11/13 00:32:42;;;;;;;21.03;12.90;;;7.70;94.80;;;;;;4987671;28;20566;-50
2022/11/13 00:35:09;;;;;;;14.83;11.30;;;7.80;94.70;;;;;;4989141;28;20535;-51
2022/11/13 00:37:35;;;;;;;18.87;12.30;;;7.80;94.40;;;;;;4986720;28;20999;-51
2022/11/13 00:40:02;;;;;;;14.77;11.57;;;7.90;93.50;;;;;;4986563;28;20497;-52
2022/11/13 00:42:29;;;;;;;20.20;12.70;;;7.90;93.20;;;;;;4993186;28;20457;-51
2022/11/13 00:44:56;;;;;;;14.23;11.90;;;7.90;92.70;;;;;;4993397;28;20464;-52
2022/11/13 00:47:23;;;;;;;16.27;12.33;;;7.90;92.70;;;;;;4990053;28;20546;-52
2022/11/13 00:49:50;;;;;;;15.77;11.33;;;7.90;92.20;;;;;;4991544;28;21165;-52
2022/11/13 00:52:16;;;;;;;17.10;12.93;;;8.00;91.80;;;;;;4987647;28;21504;-52
2022/11/13 00:54:43;;;;;;;15.30;12.50;;;7.90;91.80;;;;;;4987364;28;20566;-52
2022/11/13 00:57:09;;;;;;;16.37;12.33;;;8.00;91.50;;;;;;4992428;28;20522;-52
2022/11/13 00:59:36;;;;;;;14.63;12.60;;;8.00;91.20;;;;;;4989964;28;20514;-52
2022/11/13 01:02:04;;;;;;;23.30;14.20;;;8.00;90.80;;;;;;4990466;28;20884;-51
2022/11/13 01:04:30;;;;;;;24.40;14.97;;;8.00;90.20;;;;;;4994112;28;20464;-53
2022/11/13 01:06:57;;;;;;;20.20;13.70;;;8.00;89.70;;;;;;4991000;28;20479;-51
2022/11/13 01:09:23;;;;;;;21.70;14.20;;;8.10;89.70;;;;;;4991034;28;20468;-53
2022/11/13 01:11:50;;;;;;;20.57;15.17;;;8.10;89.40;;;;;;4988267;28;21021;-52
2022/11/13 01:14:17;;;;;;;19.83;13.40;;;8.10;89.20;;;;;;4989982;28;20765;-53
2022/11/13 01:16:43;;;;;;;18.53;14.57;;;8.10;88.90;;;;;;4993122;28;21025;-54
2022/11/13 01:19:11;;;;;;;18.50;14.37;;;8.10;88.70;;;;;;4989933;28;20488;-54
2022/11/13 01:21:38;;;;;;;22.00;16.70;;;8.20;88.20;;;;;;4991494;28;20540;-53
2022/11/13 01:24:05;;;;;;;19.17;14.00;;;8.20;88.00;;;;;;4989524;28;20883;-52
2022/11/13 01:26:31;;;;;;;18.13;13.80;;;8.20;87.70;;;;;;4991981;28;20872;-55
2022/11/13 01:28:59;;;;;;;18.40;13.77;;;8.10;87.30;;;;;;4982834;28;20461;-53
2022/11/13 01:31:28;;;;;;;20.37;14.70;;;8.20;87.00;;;;;;4990315;28;20578;-54
2022/11/13 01:33:55;;;;;;;19.43;13.37;;;8.20;87.00;;;;;;4991562;28;20893;-53
2022/11/13 01:36:25;;;;;;;20.00;15.57;;;8.20;87.20;;;;;;4990880;28;20504;-53
2022/11/13 01:38:52;;;;;;;21.10;14.77;;;8.20;86.40;;;;;;4989673;28;20460;-54
2022/11/13 01:41:21;;;;;;;22.60;15.07;;;8.20;86.30;;;;;;4991945;28;20456;-53
2022/11/13 01:43:48;;;;;;;23.23;14.30;;;8.20;85.70;;;;;;4990849;28;20456;-53
2022/11/13 01:46:24;;;;;;;22.13;14.90;;;8.30;85.80;;;;;;4989940;28;20545;-53
2022/11/13 01:48:56;;;;;;;17.20;14.17;;;8.30;85.50;;;;;;4989820;28;20507;-53
2022/11/13 01:51:29;;;;;;;19.90;14.40;;;8.30;85.30;;;;;;4989596;28;21029;-53
2022/11/13 01:53:58;;;;;;;20.93;15.03;;;8.30;85.00;;;;;;4990271;28;20497;-54
2022/11/13 01:56:25;;;;;;;19.03;15.67;;;8.30;84.70;;;;;;4990648;28;20511;-53
2022/11/13 01:58:57;;;;;;;19.47;15.40;;;8.30;84.60;;;;;;4991158;28;20954;-54
2022/11/13 02:01:23;;;;;;;16.67;14.43;;;8.30;84.30;;;;;;4989894;28;20519;-53
2022/11/13 02:03:50;;;;;;;24.10;16.43;;;8.30;84.00;;;;;;4986079;28;20979;-54
2022/11/13 02:06:17;;;;;;;20.60;17.17;;;8.30;83.70;;;;;;4991498;28;20516;-53
2022/11/13 02:08:45;;;;;;;23.70;17.00;;;8.30;83.50;;;;;;4991369;28;20537;-53
2022/11/13 02:11:13;;;;;;;24.30;15.93;;;8.40;83.30;;;;;;4990230;28;20500;-54
2022/11/13 02:13:39;;;;;;;24.93;15.80;;;8.40;82.80;;;;;;4989883;28;20488;-54
2022/11/13 02:16:10;;;;;;;27.90;20.60;;;8.50;82.60;;;;;;4991545;28;20513;-54
2022/11/13 02:18:38;;;;;;;29.37;17.30;;;8.40;82.00;;;;;;4988161;28;20466;-53
2022/11/13 02:21:20;;;;;;;24.90;15.40;;;8.40;81.80;;;;;;4991806;28;20468;-53
2022/11/13 02:23:53;;;;;;;21.23;16.93;;;8.40;81.30;;;;;;4989528;28;20511;-54
2022/11/13 02:26:23;;;;;;;17.73;15.63;;;8.50;81.30;;;;;;4991460;28;20539;-54
2022/11/13 02:28:50;;;;;;;23.57;17.53;;;8.50;79.40;;;;;;4984459;28;20554;-54
2022/11/13 02:31:16;;;;;;;20.90;16.70;;;8.50;80.90;;;;;;4989708;28;20491;-53
2022/11/13 02:33:43;;;;;;;21.40;17.10;;;8.50;80.80;;;;;;4984169;28;20554;-54
2022/11/13 02:36:11;;;;;;;22.83;16.63;;;8.50;80.70;;;;;;4989725;28;20511;-54
2022/11/13 02:38:40;;;;;;;19.07;15.10;;;8.50;80.30;;;;;;4991199;28;20523;-53
2022/11/13 02:41:06;;;;;;;20.47;16.07;;;8.50;79.70;;;;;;4988673;28;20845;-53
2022/11/13 02:43:34;;;;;;;22.23;17.07;;;8.50;79.50;;;;;;4988819;28;20863;-54
2022/11/13 02:46:01;;;;;;;21.93;15.30;;;8.50;79.70;;;;;;4986998;28;20488;-54
2022/11/13 02:48:27;;;;;;;30.53;16.47;;;8.50;79.50;;;;;;4986899;28;20460;-54
2022/11/13 02:50:55;;;;;;;22.53;16.37;;;8.60;79.20;;;;;;4987706;28;20496;-53
2022/11/13 02:53:21;;;;;;;19.10;13.30;;;8.50;79.30;;;;;;4987390;28;20617;-54
2022/11/13 02:55:48;;;;;;;21.60;15.97;;;8.60;78.80;;;;;;4988234;28;20488;-54
2022/11/13 02:58:15;;;;;;;19.27;15.00;;;8.60;78.90;;;;;;4990509;28;20523;-54
2022/11/13 03:00:43;;;;;;;22.13;15.83;;;8.60;78.50;;;;;;4990052;28;20460;-54
2022/11/13 03:03:09;;;;;;;19.87;15.80;;;8.60;78.20;;;;;;4988147;28;20460;-55
2022/11/13 03:05:36;;;;;;;18.90;14.70;;;8.60;78.40;;;;;;4984421;28;20762;-53
2022/11/13 03:08:03;;;;;;;18.37;14.30;;;8.60;78.10;;;;;;4985647;28;20468;-55
2022/11/13 03:10:29;;;;;;;18.93;13.87;;;8.70;77.90;;;;;;4991505;28;20491;-54
2022/11/13 03:12:56;;;;;;;20.17;15.00;;;8.70;77.60;;;;;;4990787;28;21069;-53
2022/11/13 03:15:22;;;;;;;14.53;12.57;;;8.70;77.30;;;;;;4988419;28;20539;-54
2022/11/13 03:17:50;;;;;;;16.60;12.63;;;8.80;77.30;;;;;;4988514;28;20470;-54
2022/11/13 03:20:18;;;;;;;15.30;12.63;;;8.80;76.60;;;;;;4981610;28;20481;-53
2022/11/13 03:22:44;;;;;;;15.40;13.17;;;8.80;76.60;;;;;;4986634;28;20970;-54
2022/11/13 03:25:11;;;;;;;18.10;13.03;;;8.80;76.60;;;;;;4989558;28;20539;-53
2022/11/13 03:27:38;;;;;;;14.57;12.83;;;8.80;76.50;;;;;;4989893;28;20457;-53
2022/11/13 03:30:05;;;;;;;15.70;13.23;;;8.80;76.60;;;;;;4988819;28;20980;-53
2022/11/13 03:32:32;;;;;;;21.43;12.87;;;8.80;76.00;;;;;;4985911;28;21285;-53
2022/11/13 03:35:00;;;;;;;17.60;12.00;;;8.90;76.10;;;;;;4985629;28;20457;-55
2022/11/13 03:37:26;;;;;;;17.87;12.40;;;8.90;76.20;;;;;;4989539;28;20592;-54
2022/11/13 03:39:53;;;;;;;14.57;11.80;;;8.80;76.10;;;;;;4989515;28;20523;-53
2022/11/13 03:42:20;;;;;;;18.37;12.47;;;8.90;76.00;;;;;;4988241;28;20496;-53
2022/11/13 03:44:46;;;;;;;15.40;10.00;;;8.90;75.60;;;;;;4987803;28;20460;-54
2022/11/13 03:47:13;;;;;;;15.60;11.10;;;9.00;75.60;;;;;;4987761;28;20464;-53
2022/11/13 03:49:39;;;;;;;12.97;10.43;;;9.00;75.00;;;;;;4988088;28;20907;-54
2022/11/13 03:52:07;;;;;;;13.33;10.90;;;9.10;75.90;;;;;;4986021;28;20526;-55
2022/11/13 03:54:34;;;;;;;15.13;10.83;;;9.10;76.50;;;;;;4989421;28;20973;-54
2022/11/13 03:57:01;;;;;;;12.60;10.93;;;9.10;77.70;;;;;;4986027;28;21022;-55
2022/11/13 03:59:27;;;;;;;14.20;10.67;;;9.10;79.40;;;;;;4983305;28;20507;-54
2022/11/13 04:01:54;;;;;;;13.23;10.10;;;9.10;79.10;;;;;;4987180;28;20492;-53
2022/11/13 04:04:20;;;;;;;12.90;9.53;;;9.10;83.50;;;;;;4986579;28;20849;-53
2022/11/13 04:06:47;;;;;;;13.07;8.83;;;9.20;85.10;;;;;;4990080;28;20551;-53
2022/11/13 04:09:15;;;;;;;17.00;10.67;;;9.20;85.70;;;;;;4986400;28;20519;-53
2022/11/13 04:11:41;;;;;;;12.47;8.50;;;9.20;88.60;;;;;;4986819;28;20515;-54
2022/11/13 04:14:08;;;;;;;11.63;7.70;;;9.30;89.20;;;;;;4989369;28;20519;-54
2022/11/13 04:16:35;;;;;;;11.90;8.80;;;9.30;90.10;;;;;;4990327;28;20991;-53
2022/11/13 04:19:01;;;;;;;19.23;9.00;;;9.30;91.40;;;;;;4988497;28;20900;-54
2022/11/13 04:21:28;;;;;;;17.73;9.70;;;9.40;95.50;;;;;;4984116;28;20515;-53
2022/11/13 04:23:54;;;;;;;10.03;7.77;;;9.40;99.90;;;;;;4983409;28;20500;-53
2022/11/13 04:26:22;;;;;;;9.33;8.37;;;9.40;99.90;;;;;;4989876;28;20488;-54
2022/11/13 04:28:49;;;;;;;13.17;9.00;;;9.40;99.90;;;;;;4988467;28;20472;-53
2022/11/13 04:31:15;;;;;;;10.80;9.17;;;9.40;99.90;;;;;;4988007;28;20477;-54
2022/11/13 04:33:42;;;;;;;11.87;8.40;;;9.40;99.90;;;;;;4986376;28;21006;-54
2022/11/13 04:36:09;;;;;;;9.93;8.37;;;9.40;99.90;;;;;;4986828;28;20572;-54
2022/11/13 04:38:35;;;;;;;9.57;8.30;;;9.40;99.90;;;;;;4985920;28;20461;-54
2022/11/13 04:43:47;;;;;;;21.23;8.47;;;9.40;99.90;;;;;;4987230;28;20452;-54
2022/11/13 04:46:14;;;;;;;8.33;7.50;;;9.40;99.90;;;;;;4986978;28;20908;-54
2022/11/13 04:48:40;;;;;;;10.90;6.77;;;9.40;99.90;;;;;;4987839;28;20484;-54
2022/11/13 04:51:07;;;;;;;10.90;7.80;;;9.40;99.90;;;;;;4988689;28;20523;-54
2022/11/13 04:53:34;;;;;;;12.23;7.33;;;9.50;99.90;;;;;;4986219;28;20495;-54
2022/11/13 04:56:01;;;;;;;8.37;7.50;;;9.50;99.90;;;;;;4985886;28;20484;-53
2022/11/13 04:58:27;;;;;;;9.73;8.30;;;9.50;99.90;;;;;;4987359;28;20507;-53
2022/11/13 05:00:55;;;;;;;11.00;8.60;;;9.50;99.90;;;;;;4985805;28;20464;-54
2022/11/13 05:03:22;;;;;;;10.93;8.20;;;9.50;99.90;;;;;;4988149;28;20507;-54
2022/11/13 05:05:48;;;;;;;9.40;8.30;;;9.60;99.90;;;;;;4988513;28;20895;-53
2022/11/13 05:08:15;;;;;;;10.93;9.00;;;9.60;99.90;;;;;;4984517;28;20456;-54
2022/11/13 05:10:41;;;;;;;8.80;7.93;;;9.60;99.90;;;;;;4988338;28;20961;-54
2022/11/13 05:13:08;;;;;;;13.50;10.10;;;9.60;99.90;;;;;;4988495;28;20484;-52
2022/11/13 05:15:35;;;;;;;14.63;8.90;;;9.60;99.90;;;;;;4984440;28;20488;-52
2022/11/13 05:18:03;;;;;;;12.33;10.43;;;9.60;99.90;;;;;;4986884;28;20464;-51
2022/11/13 05:20:29;;;;;;;13.73;10.63;;;9.50;99.90;;;;;;4985288;28;20528;-50
2022/11/13 05:22:56;;;;;;;15.50;11.30;;;9.50;99.90;;;;;;4985537;28;20468;-51
2022/11/13 05:25:22;;;;;;;11.80;10.50;;;9.50;99.90;;;;;;4988265;28;21025;-52
2022/11/13 05:27:49;;;;;;;12.53;9.73;;;9.50;99.90;;;;;;4991682;28;20526;-51
2022/11/13 05:30:16;;;;;;;15.60;11.40;;;9.50;99.90;;;;;;4986956;28;20460;-51
2022/11/13 05:32:43;;;;;;;13.03;10.40;;;9.50;99.90;;;;;;4986916;28;20511;-52
2022/11/13 05:35:10;;;;;;;11.50;10.00;;;9.50;99.90;;;;;;4988788;28;21022;-51
2022/11/13 05:37:37;;;;;;;11.53;9.60;;;9.50;99.90;;;;;;4985410;28;20558;-51
2022/11/13 05:40:05;;;;;;;15.50;10.10;;;9.50;99.90;;;;;;4992946;28;20472;-51
2022/11/13 05:42:31;;;;;;;14.13;9.40;;;9.50;99.90;;;;;;4991094;28;20460;-51
2022/11/13 05:44:58;;;;;;;11.60;8.43;;;9.60;99.90;;;;;;4989254;28;20467;-51
2022/11/13 05:47:24;;;;;;;10.87;8.83;;;9.60;99.90;;;;;;4989116;28;21262;-50
2022/11/13 05:49:51;;;;;;;12.43;9.40;;;9.60;99.90;;;;;;4988075;28;20567;-52
2022/11/13 05:52:19;;;;;;;9.83;7.93;;;9.60;99.90;;;;;;4988527;28;20846;-51
2022/11/13 05:54:46;;;;;;;11.37;8.90;;;9.60;99.90;;;;;;4991526;28;20520;-50
2022/11/13 05:57:12;;;;;;;13.07;9.10;;;9.60;99.90;;;;;;4990420;28;20628;-51
2022/11/13 05:59:39;;;;;;;12.50;8.50;;;9.60;99.90;;;;;;4986946;28;20526;-51
2022/11/13 06:02:05;;;;;;;9.90;8.60;;;9.60;99.90;;;;;;4989494;28;20963;-51
2022/11/13 06:07:16;;;;;;;10.50;8.33;;;9.60;99.90;;;;;;4989586;28;20468;-51
2022/11/13 06:09:44;;;;;;;9.43;8.20;;;9.60;99.90;;;;;;4990878;28;20850;-52
2022/11/13 06:12:11;;;;;;;12.70;8.27;;;9.60;99.90;;;;;;4990015;28;20468;-51
2022/11/13 06:14:37;;;;;;;10.93;8.83;;;9.60;99.90;;;;;;4991828;28;20493;-52
2022/11/13 06:17:04;;;;;;;11.40;8.10;;;9.60;99.90;;;;;;4986996;28;20503;-52
2022/11/13 06:19:31;;;;;;;16.53;7.70;;;9.60;99.90;;;;;;4990766;28;20958;-51
2022/11/13 06:21:57;;;;;;;7.90;7.10;;;9.60;99.90;;;;;;4988097;28;21029;-52
2022/11/13 06:24:24;;;;;;;10.57;6.80;;;9.60;99.90;;;;;;4991209;28;20453;-52
2022/11/13 06:26:52;;;;;;;8.77;7.83;;;9.60;99.90;;;;;;4989869;28;21030;-52
2022/11/13 06:29:19;;;;;;;10.97;8.57;;;9.60;99.90;;;;;;4990956;28;20551;-52
2022/11/13 06:31:45;;;;;;;9.17;7.80;;;9.60;99.90;;;;;;4989225;28;20460;-51
2022/11/13 06:34:12;;;;;;;13.97;8.50;;;9.60;99.90;;;;;;4990461;28;20515;-52
2022/11/13 06:36:38;;;;;;;15.83;10.00;;;9.60;99.90;;;;;;4988747;28;20476;-52
2022/11/13 06:39:07;;;;;;;10.83;7.90;;;9.60;99.90;;;;;;4989100;28;20500;-51
2022/11/13 06:41:34;;;;;;;14.80;8.40;;;9.60;99.90;;;;;;4989094;28;20467;-52
2022/11/13 06:44:01;;;;;;;10.13;8.90;;;9.60;99.90;;;;;;4988765;28;20461;-51
2022/11/13 06:46:29;;;;;;;10.50;8.60;;;9.60;99.90;;;;;;4991186;28;21017;-52
2022/11/13 06:48:56;;;;;;;9.00;8.20;;;9.60;99.90;;;;;;4985897;28;20520;-52
2022/11/13 06:51:24;;;;;;;9.03;7.50;;;9.70;99.90;;;;;;4991664;28;20460;-52
2022/11/13 06:53:51;;;;;;;9.70;7.63;;;9.60;99.90;;;;;;4992243;28;20481;-52
2022/11/13 06:56:18;;;;;;;9.53;8.20;;;9.60;99.90;;;;;;4989114;28;20535;-52
2022/11/13 06:58:45;;;;;;;12.80;8.83;;;9.70;99.90;;;;;;4987994;28;20875;-53
2022/11/13 07:01:19;;;;;;;12.23;9.33;;;9.60;99.90;;;;;;4986244;28;20492;-52
2022/11/13 07:03:46;;;;;;;9.83;8.83;;;9.70;99.90;;;;;;4989691;28;20460;-52
2022/11/13 07:06:14;;;;;;;9.33;7.90;;;9.70;99.90;;;;;;4991980;28;20484;-52
2022/11/13 07:08:41;;;;;;;10.80;7.70;;;9.70;99.90;;;;;;4993656;28;20452;-53
2022/11/13 07:11:11;;;;;;;9.07;8.20;;;9.70;99.90;;;;;;4991590;28;20466;-52
2022/11/13 07:13:38;;;;;;;10.17;8.97;;;9.70;99.90;;;;;;4990601;28;20547;-52
2022/11/13 07:16:06;;;;;;;13.03;8.80;;;9.70;99.90;;;;;;4991329;28;20478;-52
2022/11/13 07:18:34;;;;;;;13.10;7.97;;;9.80;99.90;;;;;;4990988;28;20507;-52
2022/11/13 07:21:05;;;;;;;15.13;9.60;;;9.80;99.90;;;;;;4971057;28;21620;-52
2022/11/13 07:23:32;;;;;;;12.10;9.93;;;9.80;99.90;;;;;;4972013;28;20844;-52
2022/11/13 07:25:59;;;;;;;12.50;10.53;;;9.80;99.90;;;;;;4979262;28;20910;-52
2022/11/13 07:28:25;;;;;;;10.53;9.40;;;9.80;99.90;;;;;;4983688;28;20464;-52
2022/11/13 07:30:52;;;;;;;15.10;9.40;;;9.80;99.90;;;;;;4990478;28;20456;-52
2022/11/13 07:33:19;;;;;;;10.50;9.40;;;9.80;99.90;;;;;;4989451;28;20590;-52
2022/11/13 07:35:46;;;;;;;11.10;8.70;;;9.80;99.90;;;;;;4985832;28;20846;-52
2022/11/13 07:38:13;;;;;;;9.97;8.93;;;9.90;99.90;;;;;;4985497;28;20538;-52
2022/11/13 07:40:40;;;;;;;15.70;9.23;;;9.90;99.90;;;;;;4988359;28;20496;-52
2022/11/13 07:43:06;;;;;;;11.43;9.70;;;9.90;99.90;;;;;;4983314;28;20555;-51
2022/11/13 07:45:33;;;;;;;15.10;10.83;;;9.80;99.90;;;;;;4971455;28;20492;-52
2022/11/13 07:48:00;;;;;;;12.77;10.33;;;9.90;99.90;;;;;;4980996;28;20583;-51
2022/11/13 07:50:27;;;;;;;15.77;11.03;;;9.90;99.90;;;;;;4986606;28;20464;-52
2022/11/13 07:53:00;;;;;;;15.20;11.80;;;9.90;99.90;;;;;;4983653;28;20873;-52
2022/11/13 07:55:27;;;;;;;15.87;11.70;;;9.90;99.90;;;;;;4988104;28;20488;-50
2022/11/13 07:57:55;;;;;;;18.53;11.50;;;9.90;99.90;;;;;;4979047;28;20971;-51
2022/11/13 08:00:22;;;;;;;14.13;9.67;;;10.00;99.90;;;;;;4983356;28;20464;-51
2022/11/13 08:02:49;;;;;;;14.30;11.30;;;9.90;99.90;;;;;;4985637;28;20979;-51
2022/11/13 08:05:16;;;;;;;15.93;11.20;;;10.00;99.90;;;;;;4987221;28;20898;-51
2022/11/13 08:07:42;;;;;;;13.30;10.70;;;10.00;99.90;;;;;;4984239;28;20464;-51
2022/11/13 08:10:10;;;;;;;14.90;11.00;;;10.00;99.90;;;;;;4986617;28;20468;-51
2022/11/13 08:12:37;;;;;;;14.00;10.93;;;10.00;99.90;;;;;;4981679;28;20476;-52
2022/11/13 08:15:04;;;;;;;13.07;11.20;;;10.00;99.90;;;;;;4985214;28;21062;-51
2022/11/13 08:17:31;;;;;;;17.10;12.20;;;10.00;99.90;;;;;;4983076;28;20461;-51
2022/11/13 08:19:57;;;;;;;22.87;13.57;;;10.00;99.90;;;;;;4983617;28;20506;-52
2022/11/13 08:22:24;;;;;;;16.27;11.53;;;10.00;99.90;;;;;;4981713;28;20893;-52
2022/11/13 08:24:52;;;;;;;16.23;12.67;;;10.00;99.90;;;;;;4984870;28;20515;-51
2022/11/13 08:27:20;;;;;;;18.87;13.43;;;10.00;99.90;;;;;;4983939;28;20488;-51
2022/11/13 08:29:47;;;;;;;16.27;10.90;;;10.00;99.90;;;;;;4980208;28;20877;-51
2022/11/13 08:32:14;;;;;;;14.37;11.30;;;10.00;99.90;;;;;;4986120;28;20882;-51
2022/11/13 08:34:41;;;;;;;15.30;11.83;;;10.00;99.90;;;;;;4987941;28;21037;-51
2022/11/13 08:37:08;;;;;;;15.90;12.80;;;10.00;99.90;;;;;;4982908;28;20470;-51
2022/11/13 08:39:35;;;;;;;14.80;11.17;;;10.00;99.90;;;;;;4987231;28;20464;-51
2022/11/13 08:42:01;;;;;;;14.17;12.30;;;10.00;99.90;;;;;;4985210;28;20519;-50
2022/11/13 08:44:30;;;;;;;17.53;13.23;;;10.00;99.90;;;;;;4986192;28;20468;-52
2022/11/13 08:46:57;;;;;;;18.10;11.80;;;10.00;99.90;;;;;;4980860;28;20572;-53
2022/11/13 08:49:24;;;;;;;13.77;11.53;;;10.00;99.90;;;;;;4985924;28;20464;-52
2022/11/13 08:51:50;;;;;;;15.93;12.10;;;10.00;99.90;;;;;;4977624;28;20946;-53
2022/11/13 08:54:17;;;;;;;14.20;11.17;;;10.00;99.90;;;;;;4984541;28;20542;-51
2022/11/13 08:56:44;;;;;;;9.77;8.77;;;10.00;99.60;;;;;;4986723;28;20492;-51
2022/11/13 08:59:10;;;;;;;12.33;8.80;;;10.10;99.90;;;;;;4982610;28;20464;-51
2022/11/13 09:01:38;;;;;;;10.90;9.50;;;10.00;99.90;;;;;;4986838;28;20460;-51
2022/11/13 09:04:05;;;;;;;12.80;9.40;;;10.00;99.90;;;;;;4981038;28;20484;-51
2022/11/13 09:06:33;;;;;;;13.33;8.77;;;10.00;99.90;;;;;;4985677;28;21044;-51
2022/11/13 09:09:00;;;;;;;11.00;9.60;;;10.00;99.90;;;;;;4989127;28;20565;-52
2022/11/13 09:11:26;;;;;;;9.30;8.30;;;10.00;99.90;;;;;;4984747;28;20467;-52
2022/11/13 09:13:53;;;;;;;8.63;7.57;;;10.10;99.90;;;;;;4990581;28;20921;-51
2022/11/13 09:16:20;;;;;;;8.50;7.60;;;10.10;99.90;;;;;;4988243;28;20476;-52
2022/11/13 09:18:50;;;;;;;8.57;7.63;;;10.10;99.90;;;;;;4988312;28;20461;-52
2022/11/13 09:21:16;;;;;;;9.10;6.97;;;10.10;99.90;;;;;;4986694;28;20460;-51
2022/11/13 09:23:43;;;;;;;9.40;7.13;;;10.10;99.90;;;;;;4987316;28;20464;-51
2022/11/13 09:26:10;;;;;;;9.93;6.90;;;10.10;99.90;;;;;;4985748;28;20542;-50
2022/11/13 09:28:37;;;;;;;7.17;6.43;;;10.10;99.90;;;;;;4982675;28;20522;-51
2022/11/13 09:31:04;;;;;;;9.87;6.60;;;10.10;99.90;;;;;;4982608;28;20472;-50
2022/11/13 09:33:31;;;;;;;10.07;7.60;;;10.00;99.90;;;;;;4989098;28;20551;-51
2022/11/13 09:35:59;;;;;;;7.70;6.90;;;10.10;99.90;;;;;;4987998;28;20512;-51
2022/11/13 09:38:28;;;;;;;9.73;7.90;;;10.10;99.90;;;;;;4987735;28;20492;-51
2022/11/13 09:40:58;;;;;;;8.43;7.10;;;10.10;99.60;;;;;;4989096;28;20974;-52
2022/11/13 09:43:31;;;;;;;10.13;8.27;;;10.10;98.10;;;;;;4991159;28;20846;-51
2022/11/13 09:46:02;;;;;;;15.83;9.00;;;10.20;96.60;;;;;;4990060;28;20612;-51
2022/11/13 09:48:33;;;;;;;10.47;8.80;;;10.20;98.60;;;;;;4992732;28;20527;-53
2022/11/13 09:51:06;;;;;;;14.43;12.13;;;10.10;98.70;;;;;;4986073;28;20492;-51
2022/11/13 09:53:36;;;;;;;12.33;8.50;;;10.20;97.30;;;;;;4991084;28;20461;-50
2022/11/13 09:56:17;;;;;;;12.53;11.10;;;10.20;99.90;;;;;;4982053;28;20551;-50
2022/11/13 09:58:49;;;;;;;15.97;12.63;;;10.20;99.90;;;;;;4984079;28;20550;-50
2022/11/13 10:01:25;;;;;;;14.20;11.57;;;10.20;99.90;;;;;;4985676;28;21019;-51
2022/11/13 10:04:00;;;;;;;16.70;12.97;;;10.30;99.90;;;;;;4981309;28;20868;-50
2022/11/13 10:06:44;;;;;;;15.07;12.80;;;10.30;99.90;;;;;;4990978;28;20860;-52
2022/11/13 10:09:22;;;;;;;15.07;12.90;;;10.30;99.90;;;;;;4992108;28;20524;-50
2022/11/13 10:11:54;;;;;;;24.40;19.20;;;10.30;99.90;;;;;;4986039;28;20520;-51
2022/11/13 10:14:25;;;;;;;19.40;13.93;;;10.30;99.90;;;;;;4988243;28;20579;-50
2022/11/13 10:16:55;;;;;;;20.60;14.77;;;10.30;99.90;;;;;;4981022;28;20484;-50
2022/11/13 10:19:27;;;;;;;19.17;13.90;;;10.40;99.90;;;;;;4984804;28;20472;-50
2022/11/13 10:22:02;;;;;;;19.30;15.10;;;10.40;99.90;;;;;;4981641;28;20461;-51
2022/11/13 10:24:33;;;;;;;20.13;14.70;;;10.30;99.90;;;;;;4981643;28;20472;-52
2022/11/13 10:27:00;;;;;;;25.60;17.80;;;10.30;99.90;;;;;;4976204;28;21237;-50
2022/11/13 10:29:28;;;;;;;25.57;16.23;;;10.40;99.90;;;;;;4986083;28;20496;-50
2022/11/13 10:31:57;;;;;;;25.97;18.20;;;10.40;99.90;;;;;;4981350;28;20543;-50
2022/11/13 10:34:23;;;;;;;21.13;15.37;;;10.40;99.90;;;;;;4982306;28;20568;-51
2022/11/13 10:37:11;;;;;;;22.97;16.17;;;10.40;99.90;;;;;;4976687;28;20610;-53
2022/11/13 10:39:41;;;;;;;24.83;15.03;;;10.40;99.90;;;;;;4985031;28;20473;-50
2022/11/13 10:42:21;;;;;;;21.30;15.13;;;10.40;99.90;;;;;;4983888;28;20492;-51
2022/11/13 10:44:54;;;;;;;23.40;15.77;;;10.50;99.90;;;;;;4976806;28;20453;-51
2022/11/13 10:47:23;;;;;;;18.70;14.10;;;10.50;99.90;;;;;;4987611;28;20516;-50
2022/11/13 10:49:50;;;;;;;21.20;15.20;;;10.50;99.90;;;;;;4982714;28;20491;-51
2022/11/13 10:52:21;;;;;;;19.67;14.57;;;10.50;99.90;;;;;;4981415;28;20482;-49
2022/11/13 10:54:49;;;;;;;19.33;14.43;;;10.50;99.90;;;;;;4977582;28;20484;-51
2022/11/13 10:57:28;;;;;;;19.00;15.30;;;10.50;99.90;;;;;;4977798;28;20829;-50
2022/11/13 10:59:56;;;;;;;20.77;15.57;;;10.60;99.90;;;;;;4979261;28;20460;-52
2022/11/13 11:02:23;;;;;;;22.50;15.47;;;10.60;99.90;;;;;;4986597;28;20461;-51
2022/11/13 11:05:01;;;;;;;24.77;16.03;;;10.60;99.90;;;;;;4984160;28;20457;-51
2022/11/13 11:07:29;;;;;;;22.13;16.80;;;10.70;99.90;;;;;;4989342;28;20471;-51
2022/11/13 11:09:56;;;;;;;17.10;14.57;;;10.60;99.90;;;;;;4985277;28;20519;-51
2022/11/13 11:12:24;;;;;;;23.50;15.40;;;10.60;99.90;;;;;;4991540;28;20508;-50
2022/11/13 11:15:06;;;;;;;19.77;16.20;;;10.70;99.90;;;;;;4984428;28;20600;-51
2022/11/13 11:17:38;;;;;;;20.30;15.43;;;10.70;99.90;;;;;;4983053;28;20461;-51
2022/11/13 11:20:10;;;;;;;21.03;15.80;;;10.70;99.90;;;;;;4984248;28;20900;-51
2022/11/13 11:22:40;;;;;;;20.60;15.50;;;10.70;99.90;;;;;;4979296;28;20520;-51
2022/11/13 11:25:12;;;;;;;20.37;16.70;;;10.60;99.90;;;;;;4976710;28;20495;-51
2022/11/13 11:27:43;;;;;;;22.10;16.97;;;10.70;99.90;;;;;;4980538;28;20546;-52
2022/11/13 11:30:18;;;;;;;21.33;15.77;;;10.70;99.90;;;;;;4978385;28;20496;-51
2022/11/13 11:32:51;;;;;;;22.00;15.63;;;10.60;99.90;;;;;;4984877;28;21105;-50
2022/11/13 11:35:21;;;;;;;19.20;16.13;;;10.60;99.90;;;;;;4980129;28;20590;-52
2022/11/13 11:37:55;;;;;;;21.70;16.60;;;10.50;99.90;;;;;;4983135;28;20468;-51
2022/11/13 11:40:27;;;;;;;22.70;16.50;;;10.60;99.90;;;;;;4987350;28;20536;-51
2022/11/13 11:43:03;;;;;;;21.07;15.60;;;10.60;99.90;;;;;;4983439;28;20472;-51
2022/11/13 11:45:33;;;;;;;17.40;15.20;;;10.50;99.90;;;;;;4980146;28;20485;-50
2022/11/13 11:48:03;;;;;;;23.37;15.50;;;10.60;99.90;;;;;;4987143;28;20523;-52
2022/11/13 11:50:37;;;;;;;27.10;17.10;;;10.60;99.90;;;;;;4983733;28;21049;-51
2022/11/13 11:53:13;;;;;;;23.03;15.90;;;10.60;99.90;;;;;;4979275;28;20472;-51
2022/11/13 11:56:00;;;;;;;18.17;15.20;;;10.60;99.90;;;;;;4979367;28;21050;-52
2022/11/13 11:58:50;;;;;;;19.47;15.57;;;10.60;99.90;;;;;;4982833;28;20488;-52
2022/11/13 12:01:30;;;;;;;24.23;17.90;;;10.70;99.90;;;;;;4985319;28;20468;-50
2022/11/13 12:04:08;;;;;;;21.50;15.77;;;10.70;99.90;;;;;;4979942;28;20485;-51
2022/11/13 12:06:49;;;;;;;25.73;14.97;;;10.80;99.90;;;;;;4980364;28;20542;-50
2022/11/13 12:09:24;;;;;;;17.00;14.87;;;10.80;99.90;;;;;;4982884;28;20472;-51
2022/11/13 12:11:59;;;;;;;23.77;16.67;;;10.80;99.90;;;;;;4983933;28;20487;-52
2022/11/13 12:14:36;;;;;;;17.17;14.53;;;10.80;99.90;;;;;;4984262;28;20514;-51
2022/11/13 12:17:13;;;;;;;20.07;15.03;;;10.70;99.90;;;;;;4986488;28;20542;-52
2022/11/13 12:19:48;;;;;;;19.83;15.60;;;10.70;99.90;;;;;;4984846;28;20546;-51
2022/11/13 12:22:22;;;;;;;22.10;14.73;;;10.80;99.90;;;;;;4976847;28;20506;-51
2022/11/13 12:25:05;;;;;;;18.67;14.83;;;10.80;99.90;;;;;;4979796;28;21034;-51
2022/11/13 12:27:38;;;;;;;21.17;15.30;;;11.00;76.10;;;;;;4982534;28;20473;-52
2022/11/13 12:30:12;;;;;;;19.57;15.83;;;11.20;30.70;;;;;;4979141;28;20496;-52
2022/11/13 12:32:52;;;;;;;23.37;18.33;;;11.30;39.70;;;;;;4978990;28;21040;-51
2022/11/13 12:35:22;;;;;;;20.73;15.23;;;11.50;35.00;;;;;;4982995;28;20997;-52
2022/11/13 12:37:55;;;;;;;19.30;15.50;;;11.30;47.30;;;;;;4984940;28;20818;-51
2022/11/13 12:40:28;;;;;;;20.13;15.37;;;11.30;41.30;;;;;;4984094;28;20457;-52
2022/11/13 12:43:03;;;;;;;20.50;14.70;;;11.30;40.60;;;;;;4984645;28;20552;-52
2022/11/13 12:45:43;;;;;;;17.57;15.53;;;11.20;42.50;;;;;;4981014;28;20542;-51
2022/11/13 12:48:32;;;;;;;19.50;14.00;;;11.20;57.30;;;;;;4975701;28;20496;-52
2022/11/13 12:51:01;;;;;;;24.87;14.50;;;11.20;51.20;;;;;;4980451;28;20461;-52